sensor_id;sensor_type;location;lat;lon;timestamp;temperature;humidity
67163;DHT22;54092;53.088;8.850;2023-09-30T00:02:22;12.90;99.90
67163;DHT22;54092;53.088;8.850;2023-09-30T00:04:48;12.80;99.90
67163;DHT22;54092;53.088;8.850;2023-09-30T00:07:13;12.80;99.90
67163;DHT22;54092;53.088;8.850;2023-09-30T00:09:39;12.90;99.90
67163;DHT22;54092;53.088;8.850;2023-09-30T00:12:05;12.90;99.90
67163;DHT22;54092;53.088;8.850;2023-09-30T00:14:31;12.80;99.90
67163;DHT22;54092;53.088;8.850;2023-09-30T00:16:57;12.80;99.90
67163;DHT22;54092;53.088;8.850;2023-09-30T00:19:23;12.90;99.90
67163;DHT22;54092;53.088;8.850;2023-09-30T00:21:49;12.80;99.90
67163;DHT22;54092;53.088;8.850;2023-09-30T00:24:14;12.80;99.90
67163;DHT22;54092;53.088;8.850;2023-09-30T00:26:40;12.80;99.90
67163;DHT22;54092;53.088;8.850;2023-09-30T00:29:05;12.70;99.90
67163;DHT22;54092;53.088;8.850;2023-09-30T00:31:31;12.70;99.90
67163;DHT22;54092;53.088;8.850;2023-09-30T00:33:57;12.80;99.90
67163;DHT22;54092;53.088;8.850;2023-09-30T00:36:23;12.80;99.90
67163;DHT22;54092;53.088;8.850;2023-09-30T00:38:49;12.80;99.90
67163;DHT22;54092;53.088;8.850;2023-09-30T00:41:14;12.80;99.90
67163;DHT22;54092;53.088;8.850;2023-09-30T00:43:40;12.70;99.90
67163;DHT22;54092;53.088;8.850;2023-09-30T00:46:19;12.70;99.90
67163;DHT22;54092;53.088;8.850;2023-09-30T00:48:49;12.70;99.90
67163;DHT22;54092;53.088;8.850;2023-09-30T00:51:14;12.60;99.90
67163;DHT22;54092;53.088;8.850;2023-09-30T00:53:40;12.70;99.90
67163;DHT22;54092;53.088;8.850;2023-09-30T00:56:06;12.60;99.90
67163;DHT22;54092;53.088;8.850;2023-09-30T00:58:33;12.70;99.90
67163;DHT22;54092;53.088;8.850;2023-09-30T01:00:59;12.70;99.90
67163;DHT22;54092;53.088;8.850;2023-09-30T01:03:25;12.70;99.90
67163;DHT22;54092;53.088;8.850;2023-09-30T01:05:51;12.60;99.90
67163;DHT22;54092;53.088;8.850;2023-09-30T01:08:16;12.60;99.90
67163;DHT22;54092;53.088;8.850;2023-09-30T01:10:43;12.60;99.90
67163;DHT22;54092;53.088;8.850;2023-09-30T01:13:09;12.60;99.90
67163;DHT22;54092;53.088;8.850;2023-09-30T01:15:35;12.60;99.90
67163;DHT22;54092;53.088;8.850;2023-09-30T01:18:02;12.60;99.90
67163;DHT22;54092;53.088;8.850;2023-09-30T01:20:31;12.60;99.90
67163;DHT22;54092;53.088;8.850;2023-09-30T01:22:57;12.60;99.90
67163;DHT22;54092;53.088;8.850;2023-09-30T01:25:24;12.60;99.90
67163;DHT22;54092;53.088;8.850;2023-09-30T01:27:51;12.60;99.90
67163;DHT22;54092;53.088;8.850;2023-09-30T01:30:17;12.60;99.90
67163;DHT22;54092;53.088;8.850;2023-09-30T01:32:43;12.60;99.90
67163;DHT22;54092;53.088;8.850;2023-09-30T01:35:09;12.60;99.90
67163;DHT22;54092;53.088;8.850;2023-09-30T01:37:35;12.60;99.90
67163;DHT22;54092;53.088;8.850;2023-09-30T01:40:01;12.60;99.90
67163;DHT22;54092;53.088;8.850;2023-09-30T01:42:29;12.60;99.90
67163;DHT22;54092;53.088;8.850;2023-09-30T01:44:54;12.60;99.90
67163;DHT22;54092;53.088;8.850;2023-09-30T01:47:22;12.50;99.90
67163;DHT22;54092;53.088;8.850;2023-09-30T01:49:47;12.50;99.90
67163;DHT22;54092;53.088;8.850;2023-09-30T01:52:13;12.50;99.90
67163;DHT22;54092;53.088;8.850;2023-09-30T01:54:38;12.40;99.90
67163;DHT22;54092;53.088;8.850;2023-09-30T01:57:04;12.40;99.90
67163;DHT22;54092;53.088;8.850;2023-09-30T01:59:29;12.40;99.90
67163;DHT22;54092;53.088;8.850;2023-09-30T02:01:55;12.30;99.90
67163;DHT22;54092;53.088;8.850;2023-09-30T02:04:21;12.30;99.90
67163;DHT22;54092;53.088;8.850;2023-09-30T02:06:46;12.30;99.90
67163;DHT22;54092;53.088;8.850;2023-09-30T02:09:11;12.20;99.90
67163;DHT22;54092;53.088;8.850;2023-09-30T02:11:38;12.20;99.90
67163;DHT22;54092;53.088;8.850;2023-09-30T02:14:06;12.20;99.90
67163;DHT22;54092;53.088;8.850;2023-09-30T02:16:32;12.20;99.90
67163;DHT22;54092;53.088;8.850;2023-09-30T02:18:58;12.10;99.90
67163;DHT22;54092;53.088;8.850;2023-09-30T02:21:23;12.20;99.90
67163;DHT22;54092;53.088;8.850;2023-09-30T02:23:49;12.10;99.90
67163;DHT22;54092;53.088;8.850;2023-09-30T02:26:17;12.20;99.90
67163;DHT22;54092;53.088;8.850;2023-09-30T02:28:43;12.10;99.90
67163;DHT22;54092;53.088;8.850;2023-09-30T02:31:09;12.20;99.90
67163;DHT22;54092;53.088;8.850;2023-09-30T02:33:34;12.20;99.90
67163;DHT22;54092;53.088;8.850;2023-09-30T02:36:06;12.20;99.90
67163;DHT22;54092;53.088;8.850;2023-09-30T02:38:32;12.20;99.90
67163;DHT22;54092;53.088;8.850;2023-09-30T02:40:57;12.20;99.90
67163;DHT22;54092;53.088;8.850;2023-09-30T02:43:23;12.20;99.90
67163;DHT22;54092;53.088;8.850;2023-09-30T02:45:49;12.20;99.90
67163;DHT22;54092;53.088;8.850;2023-09-30T02:48:15;12.20;99.90
67163;DHT22;54092;53.088;8.850;2023-09-30T02:50:44;12.20;99.90
67163;DHT22;54092;53.088;8.850;2023-09-30T02:53:10;12.20;99.90
67163;DHT22;54092;53.088;8.850;2023-09-30T02:55:36;12.20;99.90
67163;DHT22;54092;53.088;8.850;2023-09-30T02:58:02;12.20;99.90
67163;DHT22;54092;53.088;8.850;2023-09-30T03:00:28;12.20;99.90
67163;DHT22;54092;53.088;8.850;2023-09-30T03:03:00;12.30;99.90
67163;DHT22;54092;53.088;8.850;2023-09-30T03:05:27;12.30;99.90
67163;DHT22;54092;53.088;8.850;2023-09-30T03:07:53;12.30;99.90
67163;DHT22;54092;53.088;8.850;2023-09-30T03:10:20;12.30;99.90
67163;DHT22;54092;53.088;8.850;2023-09-30T03:12:49;12.30;99.90
67163;DHT22;54092;53.088;8.850;2023-09-30T03:15:15;12.30;99.90
67163;DHT22;54092;53.088;8.850;2023-09-30T03:17:42;12.30;99.90
67163;DHT22;54092;53.088;8.850;2023-09-30T03:20:08;12.30;99.90
67163;DHT22;54092;53.088;8.850;2023-09-30T03:22:40;12.30;99.90
67163;DHT22;54092;53.088;8.850;2023-09-30T03:25:07;12.30;99.90
67163;DHT22;54092;53.088;8.850;2023-09-30T03:27:33;12.30;99.90
67163;DHT22;54092;53.088;8.850;2023-09-30T03:29:59;12.30;99.90
67163;DHT22;54092;53.088;8.850;2023-09-30T03:32:26;12.30;99.90
67163;DHT22;54092;53.088;8.850;2023-09-30T03:34:52;12.30;99.90
67163;DHT22;54092;53.088;8.850;2023-09-30T03:37:18;12.30;99.90
67163;DHT22;54092;53.088;8.850;2023-09-30T03:39:43;12.30;99.90
67163;DHT22;54092;53.088;8.850;2023-09-30T03:42:09;12.20;99.90
67163;DHT22;54092;53.088;8.850;2023-09-30T03:44:37;12.20;99.90
67163;DHT22;54092;53.088;8.850;2023-09-30T03:47:03;12.20;99.90
67163;DHT22;54092;53.088;8.850;2023-09-30T03:49:29;12.30;99.90
67163;DHT22;54092;53.088;8.850;2023-09-30T03:51:54;12.30;99.90
67163;DHT22;54092;53.088;8.850;2023-09-30T03:54:20;12.30;99.90
67163;DHT22;54092;53.088;8.850;2023-09-30T03:56:46;12.30;99.90
67163;DHT22;54092;53.088;8.850;2023-09-30T03:59:12;12.30;99.90
67163;DHT22;54092;53.088;8.850;2023-09-30T04:01:37;12.30;99.90
67163;DHT22;54092;53.088;8.850;2023-09-30T04:04:06;12.30;99.90
67163;DHT22;54092;53.088;8.850;2023-09-30T04:06:32;12.30;99.90
67163;DHT22;54092;53.088;8.850;2023-09-30T04:08:58;12.30;99.90
67163;DHT22;54092;53.088;8.850;2023-09-30T04:11:24;12.30;99.90
67163;DHT22;54092;53.088;8.850;2023-09-30T04:13:50;12.30;99.90
67163;DHT22;54092;53.088;8.850;2023-09-30T04:16:16;12.30;99.90
67163;DHT22;54092;53.088;8.850;2023-09-30T04:18:43;12.30;99.90
67163;DHT22;54092;53.088;8.850;2023-09-30T04:21:09;12.30;99.90
67163;DHT22;54092;53.088;8.850;2023-09-30T04:23:35;12.30;99.90
67163;DHT22;54092;53.088;8.850;2023-09-30T04:26:03;12.30;99.90
67163;DHT22;54092;53.088;8.850;2023-09-30T04:28:30;12.30;99.90
67163;DHT22;54092;53.088;8.850;2023-09-30T04:30:56;12.40;99.90
67163;DHT22;54092;53.088;8.850;2023-09-30T04:33:21;12.40;99.90
67163;DHT22;54092;53.088;8.850;2023-09-30T04:35:49;12.40;99.90
67163;DHT22;54092;53.088;8.850;2023-09-30T04:38:15;12.40;99.90
67163;DHT22;54092;53.088;8.850;2023-09-30T04:40:40;12.40;99.90
67163;DHT22;54092;53.088;8.850;2023-09-30T04:43:08;12.40;99.90
67163;DHT22;54092;53.088;8.850;2023-09-30T04:45:34;12.40;99.90
67163;DHT22;54092;53.088;8.850;2023-09-30T04:48:00;12.40;99.90
67163;DHT22;54092;53.088;8.850;2023-09-30T04:50:27;12.40;99.90
67163;DHT22;54092;53.088;8.850;2023-09-30T04:52:53;12.40;99.90
67163;DHT22;54092;53.088;8.850;2023-09-30T04:55:19;12.40;99.90
67163;DHT22;54092;53.088;8.850;2023-09-30T04:57:46;12.40;99.90
67163;DHT22;54092;53.088;8.850;2023-09-30T05:00:14;12.40;99.90
67163;DHT22;54092;53.088;8.850;2023-09-30T05:02:40;12.40;99.90
67163;DHT22;54092;53.088;8.850;2023-09-30T05:05:06;12.40;99.90
67163;DHT22;54092;53.088;8.850;2023-09-30T05:07:32;12.40;99.90
67163;DHT22;54092;53.088;8.850;2023-09-30T05:09:58;12.40;99.90
67163;DHT22;54092;53.088;8.850;2023-09-30T05:12:25;12.40;99.90
67163;DHT22;54092;53.088;8.850;2023-09-30T05:14:51;12.40;99.90
67163;DHT22;54092;53.088;8.850;2023-09-30T05:17:16;12.40;99.90
67163;DHT22;54092;53.088;8.850;2023-09-30T05:19:42;12.40;99.90
67163;DHT22;54092;53.088;8.850;2023-09-30T05:22:07;12.40;99.90
67163;DHT22;54092;53.088;8.850;2023-09-30T05:24:33;12.40;99.90
67163;DHT22;54092;53.088;8.850;2023-09-30T05:27:00;12.40;99.90
67163;DHT22;54092;53.088;8.850;2023-09-30T05:29:26;12.40;99.90
67163;DHT22;54092;53.088;8.850;2023-09-30T05:31:52;12.40;99.90
67163;DHT22;54092;53.088;8.850;2023-09-30T05:34:18;12.40;99.90
67163;DHT22;54092;53.088;8.850;2023-09-30T05:36:43;12.40;99.90
67163;DHT22;54092;53.088;8.850;2023-09-30T05:39:09;12.40;99.90
67163;DHT22;54092;53.088;8.850;2023-09-30T05:41:36;12.40;99.90
67163;DHT22;54092;53.088;8.850;2023-09-30T05:44:03;12.40;99.90
67163;DHT22;54092;53.088;8.850;2023-09-30T05:46:30;12.40;99.90
67163;DHT22;54092;53.088;8.850;2023-09-30T05:48:56;12.40;99.90
67163;DHT22;54092;53.088;8.850;2023-09-30T05:51:21;12.40;99.90
67163;DHT22;54092;53.088;8.850;2023-09-30T05:53:47;12.40;99.90
67163;DHT22;54092;53.088;8.850;2023-09-30T05:56:13;12.40;99.90
67163;DHT22;54092;53.088;8.850;2023-09-30T05:58:41;12.50;99.90
67163;DHT22;54092;53.088;8.850;2023-09-30T06:01:08;12.50;99.90
67163;DHT22;54092;53.088;8.850;2023-09-30T06:03:36;12.50;99.90
67163;DHT22;54092;53.088;8.850;2023-09-30T06:06:11;12.50;99.90
67163;DHT22;54092;53.088;8.850;2023-09-30T06:08:37;12.50;99.90
67163;DHT22;54092;53.088;8.850;2023-09-30T06:11:03;12.50;99.90
67163;DHT22;54092;53.088;8.850;2023-09-30T06:13:28;12.60;99.90
67163;DHT22;54092;53.088;8.850;2023-09-30T06:15:57;12.60;99.90
67163;DHT22;54092;53.088;8.850;2023-09-30T06:18:23;12.60;99.90
67163;DHT22;54092;53.088;8.850;2023-09-30T06:20:49;12.60;99.90
67163;DHT22;54092;53.088;8.850;2023-09-30T06:23:15;12.60;99.90
67163;DHT22;54092;53.088;8.850;2023-09-30T06:25:41;12.70;99.90
67163;DHT22;54092;53.088;8.850;2023-09-30T06:28:07;12.70;99.90
67163;DHT22;54092;53.088;8.850;2023-09-30T06:30:33;12.80;99.90
67163;DHT22;54092;53.088;8.850;2023-09-30T06:33:02;12.80;99.90
67163;DHT22;54092;53.088;8.850;2023-09-30T06:35:30;12.90;99.90
67163;DHT22;54092;53.088;8.850;2023-09-30T06:37:58;13.00;99.90
67163;DHT22;54092;53.088;8.850;2023-09-30T06:40:24;13.00;99.90
67163;DHT22;54092;53.088;8.850;2023-09-30T06:42:50;13.10;99.90
67163;DHT22;54092;53.088;8.850;2023-09-30T06:45:17;13.10;99.90
67163;DHT22;54092;53.088;8.850;2023-09-30T06:47:42;13.20;99.90
67163;DHT22;54092;53.088;8.850;2023-09-30T06:50:11;13.20;99.90
67163;DHT22;54092;53.088;8.850;2023-09-30T06:52:39;13.40;99.90
67163;DHT22;54092;53.088;8.850;2023-09-30T06:55:06;13.50;99.90
67163;DHT22;54092;53.088;8.850;2023-09-30T06:57:36;13.50;99.90
67163;DHT22;54092;53.088;8.850;2023-09-30T07:00:06;13.60;99.90
67163;DHT22;54092;53.088;8.850;2023-09-30T07:02:34;13.70;99.90
67163;DHT22;54092;53.088;8.850;2023-09-30T07:05:00;13.90;99.90
67163;DHT22;54092;53.088;8.850;2023-09-30T07:07:25;13.90;99.90
67163;DHT22;54092;53.088;8.850;2023-09-30T07:09:51;14.00;99.90
67163;DHT22;54092;53.088;8.850;2023-09-30T07:12:17;14.10;99.90
67163;DHT22;54092;53.088;8.850;2023-09-30T07:14:42;14.20;99.90
67163;DHT22;54092;53.088;8.850;2023-09-30T07:17:07;14.20;99.90
67163;DHT22;54092;53.088;8.850;2023-09-30T07:19:33;14.10;99.90
67163;DHT22;54092;53.088;8.850;2023-09-30T07:21:58;14.10;99.90
67163;DHT22;54092;53.088;8.850;2023-09-30T07:24:24;14.10;99.90
67163;DHT22;54092;53.088;8.850;2023-09-30T07:26:50;14.20;99.90
67163;DHT22;54092;53.088;8.850;2023-09-30T07:29:16;14.30;99.90
67163;DHT22;54092;53.088;8.850;2023-09-30T07:31:41;14.30;99.90
67163;DHT22;54092;53.088;8.850;2023-09-30T07:34:07;14.30;99.90
67163;DHT22;54092;53.088;8.850;2023-09-30T07:36:32;14.50;99.90
67163;DHT22;54092;53.088;8.850;2023-09-30T07:38:58;14.60;99.90
67163;DHT22;54092;53.088;8.850;2023-09-30T07:41:26;14.70;99.90
67163;DHT22;54092;53.088;8.850;2023-09-30T07:43:52;14.80;99.90
67163;DHT22;54092;53.088;8.850;2023-09-30T07:46:17;14.90;99.90
67163;DHT22;54092;53.088;8.850;2023-09-30T07:48:43;15.00;99.90
67163;DHT22;54092;53.088;8.850;2023-09-30T07:51:08;15.10;99.90
67163;DHT22;54092;53.088;8.850;2023-09-30T07:53:38;15.20;99.90
67163;DHT22;54092;53.088;8.850;2023-09-30T07:56:05;15.40;99.90
67163;DHT22;54092;53.088;8.850;2023-09-30T07:58:31;15.60;99.90
67163;DHT22;54092;53.088;8.850;2023-09-30T08:00:57;15.70;99.90
67163;DHT22;54092;53.088;8.850;2023-09-30T08:03:23;15.70;99.90
67163;DHT22;54092;53.088;8.850;2023-09-30T08:05:48;15.80;99.90
67163;DHT22;54092;53.088;8.850;2023-09-30T08:08:14;15.90;99.90
67163;DHT22;54092;53.088;8.850;2023-09-30T08:10:39;16.00;99.90
67163;DHT22;54092;53.088;8.850;2023-09-30T08:13:05;16.00;99.90
67163;DHT22;54092;53.088;8.850;2023-09-30T08:15:30;16.00;99.90
67163;DHT22;54092;53.088;8.850;2023-09-30T08:17:56;16.00;99.90
67163;DHT22;54092;53.088;8.850;2023-09-30T08:20:22;16.20;99.90
67163;DHT22;54092;53.088;8.850;2023-09-30T08:22:47;16.20;99.90
67163;DHT22;54092;53.088;8.850;2023-09-30T08:25:13;16.40;99.90
67163;DHT22;54092;53.088;8.850;2023-09-30T08:27:38;16.60;99.90
67163;DHT22;54092;53.088;8.850;2023-09-30T08:30:05;16.80;99.90
67163;DHT22;54092;53.088;8.850;2023-09-30T08:32:37;17.00;99.90
67163;DHT22;54092;53.088;8.850;2023-09-30T08:35:04;17.30;99.90
67163;DHT22;54092;53.088;8.850;2023-09-30T08:37:30;17.50;99.90
67163;DHT22;54092;53.088;8.850;2023-09-30T08:39:56;17.70;99.90
67163;DHT22;54092;53.088;8.850;2023-09-30T08:42:22;17.70;99.90
67163;DHT22;54092;53.088;8.850;2023-09-30T08:44:52;18.10;99.90
67163;DHT22;54092;53.088;8.850;2023-09-30T08:47:19;18.60;99.90
67163;DHT22;54092;53.088;8.850;2023-09-30T08:49:46;19.00;99.90
67163;DHT22;54092;53.088;8.850;2023-09-30T08:52:13;19.40;99.90
67163;DHT22;54092;53.088;8.850;2023-09-30T08:54:40;19.50;99.90
67163;DHT22;54092;53.088;8.850;2023-09-30T08:57:08;19.60;99.90
67163;DHT22;54092;53.088;8.850;2023-09-30T08:59:34;19.80;99.90
67163;DHT22;54092;53.088;8.850;2023-09-30T09:02:00;20.00;99.90
67163;DHT22;54092;53.088;8.850;2023-09-30T09:04:26;19.60;99.90
67163;DHT22;54092;53.088;8.850;2023-09-30T09:06:54;19.30;99.90
67163;DHT22;54092;53.088;8.850;2023-09-30T09:09:20;19.70;99.90
67163;DHT22;54092;53.088;8.850;2023-09-30T09:11:48;19.90;99.90
67163;DHT22;54092;53.088;8.850;2023-09-30T09:14:13;19.90;99.90
67163;DHT22;54092;53.088;8.850;2023-09-30T09:16:53;20.00;99.90
67163;DHT22;54092;53.088;8.850;2023-09-30T09:19:19;20.30;99.90
67163;DHT22;54092;53.088;8.850;2023-09-30T09:21:59;20.80;99.90
67163;DHT22;54092;53.088;8.850;2023-09-30T09:27:12;21.10;99.90
67163;DHT22;54092;53.088;8.850;2023-09-30T09:29:42;21.20;99.90
67163;DHT22;54092;53.088;8.850;2023-09-30T09:32:14;21.50;99.90
67163;DHT22;54092;53.088;8.850;2023-09-30T09:34:42;21.50;99.90
67163;DHT22;54092;53.088;8.850;2023-09-30T09:37:19;21.40;99.90
67163;DHT22;54092;53.088;8.850;2023-09-30T09:39:55;21.40;99.90
67163;DHT22;54092;53.088;8.850;2023-09-30T09:42:29;21.70;99.90
67163;DHT22;54092;53.088;8.850;2023-09-30T09:44:57;21.40;99.90
67163;DHT22;54092;53.088;8.850;2023-09-30T09:47:24;21.40;99.90
67163;DHT22;54092;53.088;8.850;2023-09-30T09:49:53;21.90;99.90
67163;DHT22;54092;53.088;8.850;2023-09-30T09:52:19;22.30;99.90
67163;DHT22;54092;53.088;8.850;2023-09-30T09:54:45;22.40;99.90
67163;DHT22;54092;53.088;8.850;2023-09-30T09:57:12;22.80;99.90
67163;DHT22;54092;53.088;8.850;2023-09-30T09:59:39;23.30;99.90
67163;DHT22;54092;53.088;8.850;2023-09-30T10:02:10;23.00;99.90
67163;DHT22;54092;53.088;8.850;2023-09-30T10:04:37;22.60;99.90
67163;DHT22;54092;53.088;8.850;2023-09-30T10:07:04;22.30;99.90
67163;DHT22;54092;53.088;8.850;2023-09-30T10:09:32;22.50;99.90
67163;DHT22;54092;53.088;8.850;2023-09-30T10:12:00;23.00;99.90
67163;DHT22;54092;53.088;8.850;2023-09-30T10:14:31;23.30;99.90
67163;DHT22;54092;53.088;8.850;2023-09-30T10:16:58;22.50;99.90
67163;DHT22;54092;53.088;8.850;2023-09-30T10:19:23;21.90;99.90
67163;DHT22;54092;53.088;8.850;2023-09-30T10:24:43;21.40;99.90
67163;DHT22;54092;53.088;8.850;2023-09-30T10:35:41;21.60;99.90
67163;DHT22;54092;53.088;8.850;2023-09-30T10:40:49;21.80;99.90
67163;DHT22;54092;53.088;8.850;2023-09-30T10:43:40;21.80;99.90
67163;DHT22;54092;53.088;8.850;2023-09-30T10:48:52;22.20;99.90
67163;DHT22;54092;53.088;8.850;2023-09-30T10:51:18;22.50;99.90
67163;DHT22;54092;53.088;8.850;2023-09-30T10:53:51;22.20;99.90
67163;DHT22;54092;53.088;8.850;2023-09-30T10:56:21;22.20;99.90
67163;DHT22;54092;53.088;8.850;2023-09-30T10:58:51;22.20;99.90
67163;DHT22;54092;53.088;8.850;2023-09-30T11:01:19;22.40;99.90
67163;DHT22;54092;53.088;8.850;2023-09-30T11:03:46;22.40;99.90
67163;DHT22;54092;53.088;8.850;2023-09-30T11:06:15;21.70;99.90
67163;DHT22;54092;53.088;8.850;2023-09-30T11:08:55;21.60;99.90
67163;DHT22;54092;53.088;8.850;2023-09-30T11:11:41;21.60;99.90
67163;DHT22;54092;53.088;8.850;2023-09-30T11:14:30;21.70;99.90
67163;DHT22;54092;53.088;8.850;2023-09-30T11:16:58;21.80;99.90
67163;DHT22;54092;53.088;8.850;2023-09-30T11:19:25;22.20;99.90
67163;DHT22;54092;53.088;8.850;2023-09-30T11:21:54;22.30;99.90
67163;DHT22;54092;53.088;8.850;2023-09-30T11:24:20;22.20;99.90
67163;DHT22;54092;53.088;8.850;2023-09-30T11:26:47;22.20;99.90
67163;DHT22;54092;53.088;8.850;2023-09-30T11:29:15;22.00;99.90
67163;DHT22;54092;53.088;8.850;2023-09-30T11:31:45;21.50;99.90
67163;DHT22;54092;53.088;8.850;2023-09-30T11:34:12;21.00;99.90
67163;DHT22;54092;53.088;8.850;2023-09-30T11:36:39;21.00;99.90
67163;DHT22;54092;53.088;8.850;2023-09-30T11:39:08;20.70;99.90
67163;DHT22;54092;53.088;8.850;2023-09-30T11:41:39;20.50;99.90
67163;DHT22;54092;53.088;8.850;2023-09-30T11:44:08;20.30;99.90
67163;DHT22;54092;53.088;8.850;2023-09-30T11:46:57;20.20;99.90
67163;DHT22;54092;53.088;8.850;2023-09-30T11:49:27;20.30;99.90
67163;DHT22;54092;53.088;8.850;2023-09-30T11:51:54;20.30;99.90
67163;DHT22;54092;53.088;8.850;2023-09-30T11:54:20;20.30;99.90
67163;DHT22;54092;53.088;8.850;2023-09-30T11:56:47;20.40;99.90
67163;DHT22;54092;53.088;8.850;2023-09-30T11:59:13;20.70;99.90
67163;DHT22;54092;53.088;8.850;2023-09-30T12:01:38;20.90;99.90
67163;DHT22;54092;53.088;8.850;2023-09-30T12:04:05;20.70;99.90
67163;DHT22;54092;53.088;8.850;2023-09-30T12:06:30;20.60;99.90
67163;DHT22;54092;53.088;8.850;2023-09-30T12:08:56;20.30;99.90
67163;DHT22;54092;53.088;8.850;2023-09-30T12:11:22;20.30;99.90
67163;DHT22;54092;53.088;8.850;2023-09-30T12:13:50;20.10;99.90
67163;DHT22;54092;53.088;8.850;2023-09-30T12:16:16;19.90;99.90
67163;DHT22;54092;53.088;8.850;2023-09-30T12:18:42;19.90;99.90
67163;DHT22;54092;53.088;8.850;2023-09-30T12:21:12;19.90;99.90
67163;DHT22;54092;53.088;8.850;2023-09-30T12:23:39;19.90;99.90
67163;DHT22;54092;53.088;8.850;2023-09-30T12:26:05;19.90;99.90
67163;DHT22;54092;53.088;8.850;2023-09-30T12:28:32;19.80;99.90
67163;DHT22;54092;53.088;8.850;2023-09-30T12:30:58;19.80;99.90
67163;DHT22;54092;53.088;8.850;2023-09-30T12:33:24;19.90;99.90
67163;DHT22;54092;53.088;8.850;2023-09-30T12:35:49;20.10;99.90
67163;DHT22;54092;53.088;8.850;2023-09-30T12:38:17;20.10;99.90
67163;DHT22;54092;53.088;8.850;2023-09-30T12:40:42;20.00;99.90
67163;DHT22;54092;53.088;8.850;2023-09-30T12:43:18;20.00;99.90
67163;DHT22;54092;53.088;8.850;2023-09-30T12:45:45;20.10;99.90
67163;DHT22;54092;53.088;8.850;2023-09-30T12:48:11;20.10;99.90
67163;DHT22;54092;53.088;8.850;2023-09-30T12:50:36;20.40;99.90
67163;DHT22;54092;53.088;8.850;2023-09-30T12:53:02;20.50;99.90
67163;DHT22;54092;53.088;8.850;2023-09-30T12:55:28;20.60;99.90
67163;DHT22;54092;53.088;8.850;2023-09-30T12:57:53;20.50;99.90
67163;DHT22;54092;53.088;8.850;2023-09-30T13:00:19;20.50;99.90
67163;DHT22;54092;53.088;8.850;2023-09-30T13:02:47;20.40;99.90
67163;DHT22;54092;53.088;8.850;2023-09-30T13:05:13;20.10;99.90
67163;DHT22;54092;53.088;8.850;2023-09-30T13:07:39;19.90;99.90
67163;DHT22;54092;53.088;8.850;2023-09-30T13:10:05;19.70;99.90
67163;DHT22;54092;53.088;8.850;2023-09-30T13:12:31;19.90;99.90
67163;DHT22;54092;53.088;8.850;2023-09-30T13:15:00;20.00;99.90
67163;DHT22;54092;53.088;8.850;2023-09-30T13:17:26;20.10;99.90
67163;DHT22;54092;53.088;8.850;2023-09-30T13:19:52;20.10;99.90
67163;DHT22;54092;53.088;8.850;2023-09-30T13:22:18;20.10;99.90
67163;DHT22;54092;53.088;8.850;2023-09-30T13:24:43;20.10;99.90
67163;DHT22;54092;53.088;8.850;2023-09-30T13:27:09;20.00;99.90
67163;DHT22;54092;53.088;8.850;2023-09-30T13:29:35;20.00;99.90
67163;DHT22;54092;53.088;8.850;2023-09-30T13:32:01;20.00;99.90
67163;DHT22;54092;53.088;8.850;2023-09-30T13:34:27;20.10;99.90
67163;DHT22;54092;53.088;8.850;2023-09-30T13:36:54;19.90;99.90
67163;DHT22;54092;53.088;8.850;2023-09-30T13:39:20;19.70;99.90
67163;DHT22;54092;53.088;8.850;2023-09-30T13:41:46;19.60;99.90
67163;DHT22;54092;53.088;8.850;2023-09-30T13:44:14;19.60;99.90
67163;DHT22;54092;53.088;8.850;2023-09-30T13:46:40;19.50;99.90
67163;DHT22;54092;53.088;8.850;2023-09-30T13:49:05;19.50;99.90
67163;DHT22;54092;53.088;8.850;2023-09-30T13:51:31;19.60;99.90
67163;DHT22;54092;53.088;8.850;2023-09-30T13:53:56;19.60;99.90
67163;DHT22;54092;53.088;8.850;2023-09-30T13:56:22;19.60;99.90
67163;DHT22;54092;53.088;8.850;2023-09-30T13:58:48;19.60;99.90
67163;DHT22;54092;53.088;8.850;2023-09-30T14:01:17;19.60;99.90
67163;DHT22;54092;53.088;8.850;2023-09-30T14:03:45;19.70;99.90
67163;DHT22;54092;53.088;8.850;2023-09-30T14:06:13;19.80;99.90
67163;DHT22;54092;53.088;8.850;2023-09-30T14:08:42;19.80;99.90
67163;DHT22;54092;53.088;8.850;2023-09-30T14:11:11;19.90;99.90
67163;DHT22;54092;53.088;8.850;2023-09-30T14:13:37;19.80;99.90
67163;DHT22;54092;53.088;8.850;2023-09-30T14:16:05;19.70;99.90
67163;DHT22;54092;53.088;8.850;2023-09-30T14:18:30;19.70;99.90
67163;DHT22;54092;53.088;8.850;2023-09-30T14:20:56;19.60;99.90
67163;DHT22;54092;53.088;8.850;2023-09-30T14:23:22;19.50;99.90
67163;DHT22;54092;53.088;8.850;2023-09-30T14:25:49;19.30;99.90
67163;DHT22;54092;53.088;8.850;2023-09-30T14:28:14;19.10;99.90
67163;DHT22;54092;53.088;8.850;2023-09-30T14:30:40;19.10;99.90
67163;DHT22;54092;53.088;8.850;2023-09-30T14:33:06;19.10;99.90
67163;DHT22;54092;53.088;8.850;2023-09-30T14:35:33;19.10;99.90
67163;DHT22;54092;53.088;8.850;2023-09-30T14:37:59;19.10;99.90
67163;DHT22;54092;53.088;8.850;2023-09-30T14:40:26;19.20;99.90
67163;DHT22;54092;53.088;8.850;2023-09-30T14:42:51;19.20;99.90
67163;DHT22;54092;53.088;8.850;2023-09-30T14:45:17;19.30;99.90
67163;DHT22;54092;53.088;8.850;2023-09-30T14:47:42;19.40;99.90
67163;DHT22;54092;53.088;8.850;2023-09-30T14:50:08;19.50;99.90
67163;DHT22;54092;53.088;8.850;2023-09-30T14:52:34;19.50;99.90
67163;DHT22;54092;53.088;8.850;2023-09-30T14:55:00;19.40;99.90
67163;DHT22;54092;53.088;8.850;2023-09-30T14:57:25;19.40;99.90
67163;DHT22;54092;53.088;8.850;2023-09-30T14:59:51;19.30;99.90
67163;DHT22;54092;53.088;8.850;2023-09-30T15:02:17;19.30;99.90
67163;DHT22;54092;53.088;8.850;2023-09-30T15:04:43;19.20;99.90
67163;DHT22;54092;53.088;8.850;2023-09-30T15:07:08;19.20;99.90
67163;DHT22;54092;53.088;8.850;2023-09-30T15:09:34;19.20;99.90
67163;DHT22;54092;53.088;8.850;2023-09-30T15:12:00;19.20;99.90
67163;DHT22;54092;53.088;8.850;2023-09-30T15:14:25;19.10;99.90
67163;DHT22;54092;53.088;8.850;2023-09-30T15:16:51;19.10;99.90
67163;DHT22;54092;53.088;8.850;2023-09-30T15:19:17;19.00;99.90
67163;DHT22;54092;53.088;8.850;2023-09-30T15:21:43;19.00;99.90
67163;DHT22;54092;53.088;8.850;2023-09-30T15:24:08;18.90;99.90
67163;DHT22;54092;53.088;8.850;2023-09-30T15:26:34;18.90;99.90
67163;DHT22;54092;53.088;8.850;2023-09-30T15:29:00;18.90;99.90
67163;DHT22;54092;53.088;8.850;2023-09-30T15:31:27;18.80;99.90
67163;DHT22;54092;53.088;8.850;2023-09-30T15:33:54;18.80;99.90
67163;DHT22;54092;53.088;8.850;2023-09-30T15:36:19;18.80;99.90
67163;DHT22;54092;53.088;8.850;2023-09-30T15:38:45;18.80;99.90
67163;DHT22;54092;53.088;8.850;2023-09-30T15:41:12;18.80;99.90
67163;DHT22;54092;53.088;8.850;2023-09-30T15:43:38;18.70;99.90
67163;DHT22;54092;53.088;8.850;2023-09-30T15:46:04;18.70;99.90
67163;DHT22;54092;53.088;8.850;2023-09-30T15:48:29;18.70;99.90